createdAt,value
2022-11-20T00:00:48.071Z,99.99
2022-11-20T00:01:49.492Z,99.99
2022-11-20T00:02:49.652Z,99.99
2022-11-20T00:03:50.140Z,99.99
2022-11-20T00:04:50.765Z,99.99
2022-11-20T00:05:51.988Z,99.99
2022-11-20T00:06:52.604Z,99.99
2022-11-20T00:07:52.969Z,99.99
2022-11-20T00:08:53.561Z,99.99
2022-11-20T00:09:54.069Z,99.99
2022-11-20T00:10:54.550Z,99.99
2022-11-20T00:11:55.264Z,99.99
2022-11-20T00:12:55.469Z,99.99
2022-11-20T00:13:55.671Z,99.99
2022-11-20T00:14:55.877Z,99.99
2022-11-20T00:15:56.115Z,99.99
2022-11-20T00:16:56.301Z,99.99
2022-11-20T00:17:56.968Z,99.99
2022-11-20T00:18:57.627Z,99.99
2022-11-20T00:19:57.817Z,99.99
2022-11-20T00:20:58.778Z,99.99
2022-11-20T00:21:59.769Z,99.99
2022-11-20T00:23:00.429Z,99.99
2022-11-20T00:24:01.348Z,99.99
2022-11-20T00:25:02.247Z,99.99
2022-11-20T00:26:02.875Z,99.99
2022-11-20T00:27:03.075Z,99.99
2022-11-20T00:28:03.988Z,99.99
2022-11-20T00:29:04.913Z,99.99
2022-11-20T00:30:05.338Z,99.99
2022-11-20T00:31:05.699Z,99.99
2022-11-20T00:32:06.687Z,99.99
2022-11-20T00:33:07.176Z,99.99
2022-11-20T00:34:07.390Z,99.99
2022-11-20T00:35:08.016Z,99.99
2022-11-20T00:36:08.946Z,99.99
2022-11-20T00:37:09.895Z,99.99
2022-11-20T00:38:10.513Z,99.99
2022-11-20T00:39:11.008Z,99.99
2022-11-20T00:40:11.046Z,99.99
2022-11-20T00:41:11.674Z,99.99
2022-11-20T00:42:12.494Z,99.99
2022-11-20T00:43:13.702Z,99.99
2022-11-20T00:44:13.921Z,99.99
2022-11-20T00:45:14.855Z,99.99
2022-11-20T00:46:15.500Z,99.99
2022-11-20T00:47:15.673Z,99.99
2022-11-20T00:48:16.307Z,99.99
2022-11-20T00:49:16.667Z,99.99
2022-11-20T00:50:17.305Z,99.99
2022-11-20T00:51:18.254Z,99.99
2022-11-20T00:52:19.537Z,99.99
2022-11-20T00:53:19.691Z,99.99
2022-11-20T00:54:20.312Z,99.99
2022-11-20T00:55:21.221Z,99.99
2022-11-20T00:56:21.844Z,99.99
2022-11-20T00:57:23.112Z,99.99
2022-11-20T00:58:24.051Z,99.99
2022-11-20T00:59:24.939Z,99.99
2022-11-20T01:00:25.131Z,99.99
2022-11-20T01:01:26.678Z,99.99
2022-11-20T01:02:27.291Z,99.99
2022-11-20T01:03:32.506Z,99.99
2022-11-20T01:04:28.841Z,99.99
2022-11-20T01:05:29.750Z,99.99
2022-11-20T01:06:30.418Z,99.99
2022-11-20T01:07:31.530Z,99.99
2022-11-20T01:08:31.515Z,99.99
2022-11-20T01:09:31.693Z,99.99
2022-11-20T01:10:32.602Z,99.99
2022-11-20T01:11:33.641Z,99.99
2022-11-20T01:12:34.345Z,99.99
2022-11-20T01:13:34.554Z,99.99
2022-11-20T01:14:34.739Z,99.99
2022-11-20T01:15:35.351Z,99.99
2022-11-20T01:16:35.837Z,99.99
2022-11-20T01:17:36.048Z,99.99
2022-11-20T01:18:36.960Z,99.99
2022-11-20T01:19:36.848Z,99.99
2022-11-20T01:20:37.741Z,99.99
2022-11-20T01:21:38.640Z,99.99
2022-11-20T01:22:39.614Z,99.99
2022-11-20T01:23:40.503Z,99.99
2022-11-20T01:24:40.418Z,99.99
2022-11-20T01:25:41.346Z,99.99
2022-11-20T01:26:41.533Z,99.99
2022-11-20T01:27:42.428Z,99.99
2022-11-20T01:28:43.063Z,99.99
2022-11-20T01:29:43.949Z,99.99
2022-11-20T01:30:45.026Z,99.99
2022-11-20T01:31:45.219Z,99.99
2022-11-20T01:32:45.642Z,99.99
2022-11-20T01:33:45.532Z,99.99
2022-11-20T01:34:46.726Z,99.99
2022-11-20T01:35:46.905Z,99.99
2022-11-20T01:36:47.516Z,99.99
2022-11-20T01:37:47.441Z,99.99
2022-11-20T01:38:48.356Z,99.99
2022-11-20T01:39:49.288Z,99.99
2022-11-20T01:40:49.492Z,99.99
2022-11-20T01:41:49.980Z,99.99
2022-11-20T01:42:50.264Z,99.99
2022-11-20T01:43:51.472Z,99.99
2022-11-20T01:44:51.959Z,99.99
2022-11-20T01:45:52.898Z,99.99
2022-11-20T01:46:53.824Z,99.99
2022-11-20T01:47:54.742Z,99.99
2022-11-20T01:48:55.072Z,99.99
2022-11-20T01:49:56.304Z,99.99
2022-11-20T01:50:56.786Z,99.99
2022-11-20T01:51:56.680Z,99.99
2022-11-20T01:52:57.083Z,99.99
2022-11-20T01:53:57.406Z,99.99
2022-11-20T01:54:58.300Z,99.99
2022-11-20T01:55:59.208Z,99.99
2022-11-20T01:56:59.840Z,99.99
2022-11-20T01:58:00.046Z,99.99
2022-11-20T01:58:59.951Z,99.99
2022-11-20T02:00:00.836Z,99.99
2022-11-20T02:01:01.557Z,99.99
2022-11-20T02:02:02.056Z,99.99
2022-11-20T02:03:02.744Z,99.99
2022-11-20T02:04:03.671Z,99.99
2022-11-20T02:05:03.873Z,99.99
2022-11-20T02:06:04.486Z,99.99
2022-11-20T02:07:05.196Z,99.99
2022-11-20T02:08:06.009Z,99.99
2022-11-20T02:09:06.919Z,99.99
2022-11-20T02:10:08.299Z,99.99
2022-11-20T02:11:08.788Z,99.99
2022-11-20T02:12:09.705Z,99.99
2022-11-20T02:13:09.835Z,99.99
2022-11-20T02:14:10.435Z,99.99
2022-11-20T02:15:11.648Z,99.99
2022-11-20T02:16:12.356Z,99.99
2022-11-20T02:17:12.697Z,99.99
2022-11-20T02:18:13.607Z,99.99
2022-11-20T02:19:13.814Z,99.99
2022-11-20T02:20:14.032Z,99.99
2022-11-20T02:21:14.231Z,99.99
2022-11-20T02:22:14.862Z,99.99
2022-11-20T02:23:15.589Z,99.99
2022-11-20T02:24:16.081Z,99.99
2022-11-20T02:25:16.670Z,99.99
2022-11-20T02:26:17.446Z,99.99
2022-11-20T02:27:18.338Z,99.99
2022-11-20T02:28:19.438Z,99.99
2022-11-20T02:29:20.311Z,99.99
2022-11-20T02:30:20.013Z,99.99
2022-11-20T02:31:20.931Z,99.99
2022-11-20T02:32:21.542Z,99.99
2022-11-20T02:33:21.827Z,99.99
2022-11-20T02:34:22.732Z,99.99
2022-11-20T02:35:23.352Z,99.99
2022-11-20T02:36:23.965Z,99.99
2022-11-20T02:37:24.457Z,99.99
2022-11-20T02:38:25.363Z,99.99
2022-11-20T02:39:26.023Z,99.99
2022-11-20T02:40:26.659Z,99.99
2022-11-20T02:41:27.581Z,99.99
2022-11-20T02:42:27.488Z,99.99
2022-11-20T02:43:28.319Z,99.99
2022-11-20T02:44:29.529Z,99.99
2022-11-20T02:45:29.872Z,99.99
2022-11-20T02:46:30.491Z,99.99
2022-11-20T02:47:30.750Z,99.99
2022-11-20T02:48:34.562Z,99.99
2022-11-20T02:49:32.768Z,99.99
2022-11-20T02:50:33.657Z,99.99
2022-11-20T02:51:34.297Z,99.99
2022-11-20T02:52:35.199Z,99.99
2022-11-20T02:53:36.055Z,99.99
2022-11-20T02:54:36.688Z,99.99
2022-11-20T02:55:36.897Z,99.99
2022-11-20T02:56:37.232Z,99.99
2022-11-20T02:57:37.869Z,99.99
2022-11-20T02:58:38.761Z,99.99
2022-11-20T02:59:39.067Z,99.99
2022-11-20T03:00:39.551Z,99.99
2022-11-20T03:01:39.878Z,99.99
2022-11-20T03:02:39.745Z,99.99
2022-11-20T03:03:40.445Z,99.99
2022-11-20T03:04:40.782Z,99.99
2022-11-20T03:05:41.270Z,99.99
2022-11-20T03:06:42.188Z,99.99
2022-11-20T03:07:43.241Z,99.99
2022-11-20T03:08:43.265Z,99.99
2022-11-20T03:09:43.900Z,99.99
2022-11-20T03:10:44.821Z,99.99
2022-11-20T03:11:45.300Z,99.99
2022-11-20T03:12:46.211Z,99.99
2022-11-20T03:13:46.496Z,99.99
2022-11-20T03:14:51.721Z,99.99
2022-11-20T03:15:47.306Z,99.99
2022-11-20T03:16:47.925Z,99.99
2022-11-20T03:17:48.846Z,99.99
2022-11-20T03:18:49.041Z,99.99
2022-11-20T03:19:49.951Z,99.99
2022-11-20T03:20:51.149Z,99.99
2022-11-20T03:21:51.778Z,99.99
2022-11-20T03:22:52.392Z,99.99
2022-11-20T03:23:53.692Z,99.99
2022-11-20T03:24:53.896Z,99.99
2022-11-20T03:25:54.822Z,99.99
2022-11-20T03:26:54.729Z,99.99
2022-11-20T03:27:55.917Z,99.99
2022-11-20T03:28:56.833Z,99.99
2022-11-20T03:29:57.323Z,99.99
2022-11-20T03:30:57.540Z,99.99
2022-11-20T03:31:57.739Z,99.99
2022-11-20T03:32:58.364Z,99.99
2022-11-20T03:33:59.134Z,99.99
2022-11-20T03:34:59.016Z,99.99
2022-11-20T03:35:59.501Z,99.99
2022-11-20T03:36:59.739Z,99.99
2022-11-20T03:38:00.353Z,99.99
2022-11-20T03:39:01.267Z,99.99
2022-11-20T03:40:02.195Z,99.99
2022-11-20T03:41:03.133Z,99.99
2022-11-20T03:42:03.325Z,99.99
2022-11-20T03:43:03.520Z,99.99
2022-11-20T03:44:03.514Z,99.99
2022-11-20T03:45:04.420Z,99.99
2022-11-20T03:46:05.033Z,99.99
2022-11-20T03:47:05.922Z,99.99
2022-11-20T03:48:06.553Z,99.99
2022-11-20T03:49:07.036Z,99.99
2022-11-20T03:50:06.925Z,99.99
2022-11-20T03:51:07.837Z,99.99
2022-11-20T03:52:08.449Z,99.99
2022-11-20T03:53:09.361Z,99.99
2022-11-20T03:54:10.354Z,99.99
2022-11-20T03:55:10.536Z,99.99
2022-11-20T03:56:10.899Z,99.99
2022-11-20T03:57:12.120Z,99.99
2022-11-20T03:58:12.751Z,99.99
2022-11-20T03:59:13.938Z,99.99
2022-11-20T04:00:14.650Z,99.99
2022-11-20T04:01:15.031Z,99.99
2022-11-20T04:02:15.478Z,99.99
2022-11-20T04:03:15.742Z,99.99
2022-11-20T04:04:16.461Z,99.99
2022-11-20T04:05:16.955Z,99.99
2022-11-20T04:06:17.854Z,99.99
2022-11-20T04:07:18.527Z,99.99
2022-11-20T04:08:18.871Z,99.99
2022-11-20T04:09:19.902Z,99.99
2022-11-20T04:10:20.693Z,99.99
2022-11-20T04:11:21.606Z,99.99
2022-11-20T04:12:21.920Z,99.99
2022-11-20T04:13:22.836Z,99.99
2022-11-20T04:14:23.606Z,99.99
2022-11-20T04:15:24.509Z,99.99
2022-11-20T04:16:24.612Z,99.99
2022-11-20T04:17:25.089Z,99.99
2022-11-20T04:18:25.275Z,99.99
2022-11-20T04:19:26.436Z,99.99
2022-11-20T04:20:26.348Z,99.99
2022-11-20T04:21:27.240Z,99.99
2022-11-20T04:22:28.149Z,99.99
2022-11-20T04:23:34.000Z,99.99
2022-11-20T04:24:29.699Z,99.99
2022-11-20T04:25:29.602Z,99.99
2022-11-20T04:26:30.241Z,99.99
2022-11-20T04:27:31.151Z,99.99
2022-11-20T04:28:31.356Z,99.99
2022-11-20T04:29:31.545Z,99.99
2022-11-20T04:30:31.727Z,99.99
2022-11-20T04:31:31.639Z,99.99
2022-11-20T04:32:31.823Z,99.99
2022-11-20T04:33:38.119Z,99.99
2022-11-20T04:34:33.429Z,99.99
2022-11-20T04:35:34.047Z,99.99
2022-11-20T04:36:34.232Z,99.99
2022-11-20T04:37:34.862Z,99.99
2022-11-20T04:38:34.773Z,99.99
2022-11-20T04:39:35.706Z,99.99
2022-11-20T04:40:36.321Z,99.99
2022-11-20T04:41:36.361Z,99.99
2022-11-20T04:42:37.256Z,99.99
2022-11-20T04:43:37.586Z,99.99
2022-11-20T04:44:38.856Z,99.99
2022-11-20T04:45:39.785Z,99.99
2022-11-20T04:46:40.708Z,99.99
2022-11-20T04:47:41.049Z,99.99
2022-11-20T04:48:41.265Z,99.99
2022-11-20T04:49:41.559Z,99.99
2022-11-20T04:50:41.970Z,99.99
2022-11-20T04:51:42.603Z,99.99
2022-11-20T04:52:42.512Z,99.99
2022-11-20T04:53:43.423Z,99.99
2022-11-20T04:54:44.702Z,99.99
2022-11-20T04:55:45.313Z,99.99
2022-11-20T04:56:46.223Z,99.99
2022-11-20T04:57:47.143Z,99.99
2022-11-20T04:58:47.759Z,99.99
2022-11-20T04:59:48.378Z,99.99
2022-11-20T05:00:49.339Z,99.99
2022-11-20T05:01:49.361Z,99.99
2022-11-20T05:02:49.460Z,99.99
2022-11-20T05:03:50.070Z,99.99
2022-11-20T05:04:50.792Z,99.99
2022-11-20T05:05:50.979Z,99.99
2022-11-20T05:06:51.598Z,99.99
2022-11-20T05:07:52.061Z,99.99
2022-11-20T05:08:52.975Z,99.99
2022-11-20T05:09:53.163Z,99.99
2022-11-20T05:10:54.071Z,99.99
2022-11-20T05:11:57.199Z,99.99
2022-11-20T05:12:55.099Z,99.99
2022-11-20T05:13:56.110Z,99.99
2022-11-20T05:14:56.205Z,99.99
2022-11-20T05:15:56.595Z,99.99
2022-11-20T05:16:56.743Z,99.99
2022-11-20T05:17:56.679Z,99.99
2022-11-20T05:18:57.187Z,99.99
2022-11-20T05:19:58.783Z,99.99
2022-11-20T05:20:58.973Z,99.99
2022-11-20T05:21:58.858Z,99.99
2022-11-20T05:22:59.903Z,99.99
2022-11-20T05:24:00.212Z,99.99
2022-11-20T05:25:01.483Z,99.99
2022-11-20T05:26:04.850Z,99.99
2022-11-20T05:27:02.041Z,99.99
2022-11-20T05:28:02.639Z,99.99
2022-11-20T05:29:03.545Z,99.99
2022-11-20T05:30:04.455Z,99.99
2022-11-20T05:31:04.932Z,99.99
2022-11-20T05:32:05.567Z,99.99
2022-11-20T05:33:06.474Z,99.99
2022-11-20T05:34:07.114Z,99.99
2022-11-20T05:35:08.103Z,99.99
2022-11-20T05:36:08.696Z,99.99
2022-11-20T05:37:09.336Z,99.99
2022-11-20T05:38:09.674Z,99.99
2022-11-20T05:39:10.867Z,99.99
2022-11-20T05:40:11.093Z,99.99
2022-11-20T05:41:11.413Z,99.99
2022-11-20T05:42:12.605Z,99.99
2022-11-20T05:43:12.946Z,99.99
2022-11-20T05:44:14.155Z,99.99
2022-11-20T05:45:15.139Z,99.99
2022-11-20T05:46:15.776Z,99.99
2022-11-20T05:47:17.123Z,99.99
2022-11-20T05:48:17.310Z,99.99
2022-11-20T05:49:18.202Z,99.99
2022-11-20T05:50:18.345Z,99.99
2022-11-20T05:51:19.234Z,99.99
2022-11-20T05:52:20.146Z,99.99
2022-11-20T05:53:21.097Z,99.99
2022-11-20T05:54:21.096Z,99.99
2022-11-20T05:55:21.520Z,99.99
2022-11-20T05:56:22.441Z,99.99
2022-11-20T05:57:23.353Z,99.99
2022-11-20T05:58:23.543Z,99.99
2022-11-20T05:59:24.858Z,99.99
2022-11-20T06:00:24.471Z,99.99
2022-11-20T06:01:25.388Z,99.99
2022-11-20T06:02:26.365Z,99.99
2022-11-20T06:03:27.219Z,99.99
2022-11-20T06:04:27.833Z,99.99
2022-11-20T06:05:28.012Z,99.99
2022-11-20T06:06:28.650Z,99.99
2022-11-20T06:07:29.670Z,99.99
2022-11-20T06:08:29.847Z,99.99
2022-11-20T06:09:30.755Z,99.99
2022-11-20T06:10:30.975Z,99.99
2022-11-20T06:11:31.879Z,99.99
2022-11-20T06:12:31.787Z,99.99
2022-11-20T06:13:32.991Z,99.99
2022-11-20T06:14:33.753Z,99.99
2022-11-20T06:15:34.181Z,99.99
2022-11-20T06:16:34.294Z,99.99
2022-11-20T06:17:34.479Z,99.99
2022-11-20T06:18:35.089Z,99.99
2022-11-20T06:19:35.283Z,99.99
2022-11-20T06:20:40.867Z,99.99
2022-11-20T06:21:36.505Z,99.99
2022-11-20T06:22:36.988Z,99.99
2022-11-20T06:23:37.600Z,99.99
2022-11-20T06:24:38.225Z,99.99
2022-11-20T06:25:38.789Z,99.99
2022-11-20T06:26:39.703Z,99.99
2022-11-20T06:27:39.892Z,99.99
2022-11-20T06:28:40.518Z,99.99
2022-11-20T06:29:41.854Z,99.99
2022-11-20T06:30:42.173Z,99.99
2022-11-20T06:31:43.083Z,99.99
2022-11-20T06:32:43.415Z,99.99
2022-11-20T06:33:43.604Z,99.99
2022-11-20T06:34:44.513Z,99.99
2022-11-20T06:35:45.602Z,99.99
2022-11-20T06:36:45.736Z,99.99
2022-11-20T06:37:45.626Z,99.99
2022-11-20T06:38:45.955Z,99.99
2022-11-20T06:39:47.002Z,99.99
2022-11-20T06:40:47.622Z,99.99
2022-11-20T06:41:48.536Z,99.99
2022-11-20T06:42:49.298Z,99.99
2022-11-20T06:43:49.614Z,99.99
2022-11-20T06:44:50.580Z,99.99
2022-11-20T06:45:50.623Z,99.99
2022-11-20T06:46:50.835Z,99.99
2022-11-20T06:47:50.866Z,99.99
2022-11-20T06:48:51.775Z,99.99
2022-11-20T06:49:51.970Z,99.99
2022-11-20T06:50:52.893Z,99.99
2022-11-20T06:51:53.502Z,99.99
2022-11-20T06:52:54.626Z,99.99
2022-11-20T06:53:54.983Z,99.99
2022-11-20T06:54:55.880Z,99.99
2022-11-20T06:55:56.296Z,99.99
2022-11-20T06:56:56.904Z,99.99
2022-11-20T06:58:01.362Z,99.99
2022-11-20T06:58:58.859Z,99.99
2022-11-20T06:59:59.472Z,99.99
2022-11-20T07:00:59.791Z,99.99
2022-11-20T07:02:00.066Z,99.99
2022-11-20T07:03:00.975Z,99.99
2022-11-20T07:04:01.891Z,99.99
2022-11-20T07:05:02.512Z,99.99
2022-11-20T07:06:02.934Z,99.99
2022-11-20T07:07:03.945Z,99.99
2022-11-20T07:08:03.766Z,99.99
2022-11-20T07:09:08.615Z,99.99
2022-11-20T07:10:05.322Z,99.99
2022-11-20T07:11:05.815Z,99.99
2022-11-20T07:12:06.027Z,99.99
2022-11-20T07:13:06.002Z,99.99
2022-11-20T07:14:07.189Z,99.99
2022-11-20T07:15:08.120Z,99.99
2022-11-20T07:16:08.541Z,99.99
2022-11-20T07:17:09.471Z,99.99
2022-11-20T07:18:10.672Z,99.99
2022-11-20T07:19:10.888Z,99.99
2022-11-20T07:20:11.838Z,99.99
2022-11-20T07:21:11.730Z,99.99
2022-11-20T07:22:12.049Z,99.99
2022-11-20T07:23:13.273Z,99.99
2022-11-20T07:24:13.498Z,99.99
2022-11-20T07:25:14.171Z,99.99
2022-11-20T07:26:15.019Z,99.99
2022-11-20T07:27:16.201Z,99.99
2022-11-20T07:28:17.128Z,99.99
2022-11-20T07:29:17.328Z,99.99
2022-11-20T07:30:17.731Z,99.99
2022-11-20T07:31:24.208Z,99.99
2022-11-20T07:32:19.404Z,99.99
2022-11-20T07:33:19.621Z,99.99
2022-11-20T07:34:20.105Z,99.99
2022-11-20T07:35:20.314Z,99.99
2022-11-20T07:36:20.598Z,99.99
2022-11-20T07:37:20.803Z,99.99
2022-11-20T07:38:21.700Z,99.99
2022-11-20T07:39:22.204Z,99.99
2022-11-20T07:40:22.285Z,99.99
2022-11-20T07:41:23.019Z,99.99
2022-11-20T07:42:23.642Z,99.99
2022-11-20T07:43:24.137Z,99.99
2022-11-20T07:44:24.784Z,99.99
2022-11-20T07:45:24.970Z,99.99
2022-11-20T07:46:25.956Z,99.99
2022-11-20T07:47:26.798Z,99.99
2022-11-20T07:48:27.689Z,99.99
2022-11-20T07:49:28.120Z,99.99
2022-11-20T07:50:28.758Z,99.99
2022-11-20T07:51:29.674Z,99.99
2022-11-20T07:52:29.861Z,99.99
2022-11-20T07:53:30.347Z,99.99
2022-11-20T07:54:30.248Z,99.99
2022-11-20T07:55:30.437Z,99.99
2022-11-20T07:56:31.424Z,99.99
2022-11-20T07:57:34.050Z,99.99
2022-11-20T07:58:32.244Z,99.99
2022-11-20T07:59:33.158Z,99.99
2022-11-20T08:00:34.405Z,99.99
2022-11-20T08:01:34.633Z,99.99
2022-11-20T08:02:35.357Z,99.99
2022-11-20T08:03:36.272Z,98.93
2022-11-20T08:04:36.497Z,96.84
2022-11-20T08:05:36.400Z,95.7
2022-11-20T08:06:37.110Z,95.51
2022-11-20T08:07:37.095Z,94.65
2022-11-20T08:08:42.751Z,94.18
2022-11-20T08:09:38.112Z,94.18
2022-11-20T08:10:39.006Z,94.84
2022-11-20T08:11:39.629Z,94.37
2022-11-20T08:12:40.843Z,92.61
2022-11-20T08:13:41.486Z,89.8
2022-11-20T08:14:42.703Z,86.18
2022-11-20T08:15:42.914Z,84.66
2022-11-20T08:16:43.628Z,83.47
2022-11-20T08:17:56.950Z,81.85
2022-11-20T08:18:46.543Z,81.47
2022-11-20T08:19:46.768Z,81.56
2022-11-20T08:20:46.993Z,81.51
2022-11-20T08:21:47.193Z,80.61
2022-11-20T08:22:48.105Z,80.13
2022-11-20T08:23:48.022Z,80.23
2022-11-20T08:24:48.922Z,81.85
2022-11-20T08:25:49.554Z,81.85
2022-11-20T08:26:49.840Z,83.14
2022-11-20T08:27:50.762Z,83.52
2022-11-20T08:28:51.211Z,83.71
2022-11-20T08:29:52.156Z,83.33
2022-11-20T08:30:52.500Z,83.04
2022-11-20T08:31:53.421Z,83.42
2022-11-20T08:32:53.907Z,82.91
2022-11-20T08:33:54.255Z,84.14
2022-11-20T08:34:55.295Z,85.19
2022-11-20T08:35:56.197Z,84.91
2022-11-20T08:36:56.486Z,85.19
2022-11-20T08:37:56.985Z,85.95
2022-11-20T08:38:57.192Z,86.43
2022-11-20T08:39:58.402Z,86.33
2022-11-20T08:40:58.323Z,86.24
2022-11-20T08:41:59.238Z,87.19
2022-11-20T08:42:59.890Z,86.71
2022-11-20T08:44:00.838Z,86.99
2022-11-20T08:45:01.446Z,87.38
2022-11-20T08:46:02.368Z,87.76
2022-11-20T08:47:02.761Z,88.52
2022-11-20T08:48:04.209Z,88.42
2022-11-20T08:49:04.197Z,87.85
2022-11-20T08:50:04.535Z,87.85
2022-11-20T08:51:05.033Z,87.99
2022-11-20T08:52:05.671Z,88.28
2022-11-20T08:53:05.987Z,87.99
2022-11-20T08:54:05.970Z,87.04
2022-11-20T08:55:06.861Z,87.13
2022-11-20T08:56:07.348Z,85.52
2022-11-20T08:57:08.356Z,85.94
2022-11-20T08:58:08.550Z,84.99
2022-11-20T09:00:06.613Z,81.76
2022-11-20T09:00:25.102Z,82.04
2022-11-20T09:01:25.336Z,82.14
2022-11-20T09:02:25.888Z,81.56
2022-11-20T09:03:31.560Z,82.04
2022-11-20T09:04:27.856Z,81.37
2022-11-20T09:05:27.757Z,79.09
2022-11-20T09:06:28.674Z,80.04
2022-11-20T09:07:29.735Z,80.8
2022-11-20T09:08:29.817Z,80.42
2022-11-20T09:09:31.116Z,80.99
2022-11-20T09:10:31.197Z,80.71
2022-11-20T09:11:31.091Z,78.99
2022-11-20T09:12:32.061Z,78.23
2022-11-20T09:13:32.683Z,77.66
2022-11-20T09:14:33.311Z,78.33
2022-11-20T09:15:34.508Z,79.75
2022-11-20T09:16:34.997Z,80.42
2022-11-20T09:17:35.263Z,79.66
2022-11-20T09:18:35.421Z,79.57
2022-11-20T09:19:43.485Z,76.9
2022-11-20T09:20:36.775Z,74.71
2022-11-20T09:21:36.879Z,73.95
2022-11-20T09:22:37.606Z,72.71
2022-11-20T09:23:38.244Z,72.81
2022-11-20T09:24:38.730Z,73.47
2022-11-20T09:25:39.672Z,73.85
2022-11-20T09:26:40.593Z,74.43
2022-11-20T09:27:41.024Z,74.62
2022-11-20T09:28:41.632Z,75.13
2022-11-20T09:29:42.931Z,75.51
2022-11-20T09:30:43.533Z,76.18
2022-11-20T09:31:44.456Z,76.56
2022-11-20T09:32:45.361Z,75.99
2022-11-20T09:33:46.266Z,75.7
2022-11-20T09:34:46.466Z,75.93
2022-11-20T09:35:46.814Z,75.74
2022-11-20T09:36:48.013Z,75.64
2022-11-20T09:37:48.687Z,75.64
2022-11-20T09:38:48.907Z,76.21
2022-11-20T09:39:49.439Z,75.74
2022-11-20T09:40:49.356Z,74.02
2022-11-20T09:41:50.254Z,73.93
2022-11-20T09:42:50.747Z,72.82
2022-11-20T09:43:50.664Z,73.3
2022-11-20T09:44:51.893Z,72
2022-11-20T09:45:52.545Z,71.81
2022-11-20T09:46:53.032Z,70.95
2022-11-20T09:47:53.457Z,69.56
2022-11-20T09:48:53.794Z,69.65
2022-11-20T09:49:55.010Z,69.56
2022-11-20T09:50:55.207Z,69.56
2022-11-20T09:51:55.107Z,69.11
2022-11-20T09:52:56.303Z,68.63
2022-11-20T09:53:57.211Z,69.4
2022-11-20T09:54:57.400Z,69.02
2022-11-20T09:55:57.302Z,70.36
2022-11-20T09:56:58.525Z,68.82
2022-11-20T09:57:58.819Z,68.82
2022-11-20T09:58:59.742Z,67.11
2022-11-20T10:00:00.103Z,67.4
2022-11-20T10:01:00.721Z,67.87
2022-11-20T10:02:01.178Z,68.63
2022-11-20T10:03:01.099Z,68.63
2022-11-20T10:04:02.123Z,67.71
2022-11-20T10:05:02.517Z,66.95
2022-11-20T10:06:02.868Z,63.45
2022-11-20T10:07:35.684Z,61.44
2022-11-20T10:08:23.484Z,61.09
2022-11-20T10:09:24.134Z,60.42
2022-11-20T10:10:24.681Z,58.63
2022-11-20T10:11:25.123Z,57.29
2022-11-20T10:12:25.627Z,58.44
2022-11-20T10:13:26.275Z,57.39
2022-11-20T10:14:27.202Z,57.01
2022-11-20T10:15:27.829Z,57.87
2022-11-20T10:16:28.477Z,57.87
2022-11-20T10:17:28.557Z,57.87
2022-11-20T10:18:29.258Z,56.94
2022-11-20T10:19:30.183Z,56.17
2022-11-20T10:20:30.125Z,54.36
2022-11-20T10:21:30.748Z,53.71
2022-11-20T10:22:31.380Z,52.95
2022-11-20T10:23:31.782Z,51.7
2022-11-20T10:24:31.994Z,52.37
2022-11-20T10:25:31.904Z,53.52
2022-11-20T10:26:33.107Z,54.7
2022-11-20T10:27:33.737Z,52.3
2022-11-20T10:28:34.752Z,52.87
2022-11-20T10:29:35.085Z,53.26
2022-11-20T10:30:35.011Z,52.4
2022-11-20T10:31:36.220Z,51.54
2022-11-20T10:32:36.860Z,52.4
2022-11-20T10:34:11.901Z,52.87
2022-11-20T10:34:37.952Z,52.91
2022-11-20T10:35:38.872Z,51.65
2022-11-20T10:36:40.095Z,51.65
2022-11-20T10:37:40.739Z,53.6
2022-11-20T10:38:41.491Z,50.73
2022-11-20T10:39:42.126Z,50.43
2022-11-20T10:40:42.769Z,49.88
2022-11-20T10:41:43.279Z,49.31
2022-11-20T10:42:43.916Z,49.79
2022-11-20T10:43:45.123Z,51.3
2022-11-20T10:44:45.761Z,53.09
2022-11-20T10:45:46.058Z,53.83
2022-11-20T10:46:46.563Z,54.67
2022-11-20T10:47:47.503Z,55.15
2022-11-20T10:48:47.944Z,56.72
2022-11-20T10:49:48.596Z,57.29
2022-11-20T10:50:48.952Z,57.97
2022-11-20T10:51:49.864Z,58.25
2022-11-20T10:52:50.515Z,58.44
2022-11-20T10:53:51.738Z,58.8
2022-11-20T10:54:52.671Z,59.75
2022-11-20T10:55:52.902Z,60.01
2022-11-20T10:56:55.592Z,60.87
2022-11-20T10:57:54.096Z,61.6
2022-11-20T10:58:54.841Z,62.18
2022-11-20T10:59:55.333Z,62.71
2022-11-20T11:00:56.045Z,63
2022-11-20T11:01:56.852Z,63.86
2022-11-20T11:02:57.844Z,64.78
2022-11-20T11:03:58.050Z,65.36
2022-11-20T11:04:58.735Z,65.8
2022-11-20T11:05:59.167Z,65.99
2022-11-20T11:06:59.769Z,66.66
2022-11-20T11:08:00.337Z,67.1
2022-11-20T11:09:00.841Z,67.1
2022-11-20T11:10:01.336Z,67.2
2022-11-20T11:11:01.551Z,67.2
2022-11-20T11:12:06.903Z,67.1
2022-11-20T11:13:02.289Z,67.07
2022-11-20T11:14:03.190Z,66.97
2022-11-20T11:15:03.919Z,67.74
2022-11-20T11:16:05.123Z,68.02
2022-11-20T11:17:05.331Z,67.93
2022-11-20T11:18:05.694Z,67.64
2022-11-20T11:19:06.705Z,67.55
2022-11-20T11:20:06.807Z,67.64
2022-11-20T11:21:07.435Z,67.55
2022-11-20T11:22:08.399Z,67.93
2022-11-20T11:23:09.327Z,67.93
2022-11-20T11:24:42.938Z,69.04
2022-11-20T11:25:10.747Z,69.51
2022-11-20T11:26:10.961Z,69.32
2022-11-20T11:27:15.405Z,69.7
2022-11-20T11:28:11.656Z,70.94
2022-11-20T11:29:11.720Z,71.61
2022-11-20T11:30:11.634Z,72.56
2022-11-20T11:31:12.982Z,73.03
2022-11-20T11:32:13.288Z,73.07
2022-11-20T11:33:13.564Z,72.5
2022-11-20T11:34:14.155Z,72.02
2022-11-20T11:35:15.376Z,72.5
2022-11-20T11:36:15.279Z,72.12
2022-11-20T11:37:16.179Z,72.78
2022-11-20T11:38:16.384Z,72.5
2022-11-20T11:39:17.102Z,71.83
2022-11-20T11:40:33.301Z,70.78
2022-11-20T11:41:17.836Z,71.07
2022-11-20T11:42:17.862Z,70.88
2022-11-20T11:43:18.775Z,71.73
2022-11-20T11:44:19.269Z,71.11
2022-11-20T11:45:19.894Z,69.68
2022-11-20T11:46:20.821Z,69.48
2022-11-20T11:47:21.104Z,69.01
2022-11-20T11:48:21.735Z,68.63
2022-11-20T11:49:23.112Z,67.99
2022-11-20T11:50:23.088Z,67.99
2022-11-20T11:51:23.530Z,67.61
2022-11-20T11:52:24.152Z,65.61
2022-11-20T11:53:25.371Z,64.21
2022-11-20T11:54:25.185Z,62.37
2022-11-20T11:55:26.116Z,63.42
2022-11-20T11:56:26.450Z,63.23
2022-11-20T11:57:27.513Z,62.56
2022-11-20T11:58:28.159Z,62.56
2022-11-20T11:59:29.458Z,62.65
2022-11-20T12:00:29.695Z,61.41
2022-11-20T12:01:30.608Z,60.21
2022-11-20T12:02:31.067Z,60.75
2022-11-20T12:03:30.887Z,61.51
2022-11-20T12:04:31.830Z,61.13
2022-11-20T12:05:32.552Z,60.78
2022-11-20T12:06:33.452Z,60.78
2022-11-20T12:07:51.970Z,60.68
2022-11-20T12:08:34.992Z,59.82
2022-11-20T12:09:35.993Z,58.2
2022-11-20T12:10:36.916Z,57.82
2022-11-20T12:11:37.540Z,57.24
2022-11-20T12:12:38.263Z,57.34
2022-11-20T12:13:39.187Z,56.77
2022-11-20T12:14:39.089Z,57.06
2022-11-20T12:15:39.719Z,57.65
2022-11-20T12:16:40.629Z,56.51
2022-11-20T12:17:40.532Z,55.55
2022-11-20T12:18:40.735Z,54.5
2022-11-20T12:19:41.123Z,54.7
2022-11-20T12:20:42.235Z,54.89
2022-11-20T12:21:42.438Z,54.89
2022-11-20T12:22:42.262Z,54.22
2022-11-20T12:23:42.906Z,54.03
2022-11-20T12:24:43.608Z,53.49
2022-11-20T12:25:44.348Z,53.49
2022-11-20T12:26:45.549Z,53.86
2022-11-20T12:27:46.174Z,53.39
2022-11-20T12:28:46.510Z,53.49
2022-11-20T12:29:47.676Z,53.58
2022-11-20T12:30:48.032Z,53.67
2022-11-20T12:31:48.238Z,54.34
2022-11-20T12:32:49.151Z,54.82
2022-11-20T12:33:49.813Z,54.53
2022-11-20T12:34:50.732Z,54.44
2022-11-20T12:35:51.091Z,54.06
2022-11-20T12:36:52.011Z,54.34
2022-11-20T12:37:52.648Z,54.72
2022-11-20T12:38:53.577Z,54.53
2022-11-20T12:39:54.325Z,53.77
2022-11-20T12:40:54.545Z,53.67
2022-11-20T12:41:55.050Z,53.39
2022-11-20T12:42:54.970Z,53.29
2022-11-20T12:43:55.322Z,53.77
2022-11-20T12:44:56.247Z,53.58
2022-11-20T12:45:56.452Z,53.58
2022-11-20T12:46:56.870Z,52.62
2022-11-20T12:47:57.508Z,51.79
2022-11-20T12:48:57.426Z,51.6
2022-11-20T12:49:58.164Z,52.94
2022-11-20T12:51:20.081Z,54.75
2022-11-20T12:52:00.190Z,54.37
2022-11-20T12:53:00.107Z,52.75
2022-11-20T12:54:00.736Z,51.6
2022-11-20T12:55:01.382Z,51.6
2022-11-20T12:56:02.023Z,51.5
2022-11-20T12:57:08.592Z,51.89
2022-11-20T12:58:02.520Z,52.08
2022-11-20T12:59:03.439Z,52.75
2022-11-20T13:00:03.436Z,52.77
2022-11-20T13:01:04.458Z,52.75
2022-11-20T13:02:04.676Z,51.6
2022-11-20T13:03:05.287Z,51.12